createdAt,value
2019-05-01T00:00:22.977Z,12.95
2019-05-01T00:01:02.348Z,12.96
2019-05-01T00:01:46.381Z,12.92
2019-05-01T00:02:33.312Z,12.91
2019-05-01T00:03:28.022Z,12.87
2019-05-01T00:04:23.877Z,12.83
2019-05-01T00:05:07.496Z,12.76
2019-05-01T00:05:48.148Z,12.71
2019-05-01T00:06:28.551Z,12.72
2019-05-01T00:07:17.701Z,12.47
2019-05-01T00:07:53.801Z,12.54
2019-05-01T00:08:29.839Z,12.55
2019-05-01T00:09:08.466Z,12.59
2019-05-01T00:09:44.593Z,12.65
2019-05-01T00:10:21.870Z,12.64
2019-05-01T00:10:57.913Z,12.62
2019-05-01T00:11:33.956Z,12.63
2019-05-01T00:12:10.056Z,12.66
2019-05-01T00:12:46.148Z,12.68
2019-05-01T00:13:22.273Z,12.70
2019-05-01T00:13:58.444Z,12.70
2019-05-01T00:14:34.696Z,12.71
2019-05-01T00:15:11.046Z,12.71
2019-05-01T00:15:47.196Z,12.70
2019-05-01T00:16:23.390Z,12.70
2019-05-01T00:16:59.416Z,12.69
2019-05-01T00:17:35.588Z,12.69
2019-05-01T00:18:12.910Z,12.71
2019-05-01T00:18:49.472Z,12.69
2019-05-01T00:19:25.701Z,12.69
2019-05-01T00:20:01.805Z,12.71
2019-05-01T00:20:37.919Z,12.70
2019-05-01T00:21:13.940Z,12.67
2019-05-01T00:21:50.034Z,12.69
2019-05-01T00:22:26.144Z,12.71
2019-05-01T00:23:02.189Z,12.69
2019-05-01T00:23:39.354Z,12.69
2019-05-01T00:24:15.455Z,12.69
2019-05-01T00:24:51.568Z,12.69
2019-05-01T00:25:27.614Z,12.69
2019-05-01T00:26:03.833Z,12.69
2019-05-01T00:26:39.939Z,12.71
2019-05-01T00:27:16.139Z,12.70
2019-05-01T00:27:52.482Z,12.69
2019-05-01T00:28:28.574Z,12.69
2019-05-01T00:29:04.722Z,12.70
2019-05-01T00:29:40.830Z,12.67
2019-05-01T00:30:29.298Z,12.68
2019-05-01T00:30:56.362Z,12.68
2019-05-01T00:31:32.462Z,12.66
2019-05-01T00:32:08.995Z,12.65
2019-05-01T00:32:45.100Z,12.63
2019-05-01T00:33:21.112Z,12.63
2019-05-01T00:33:57.152Z,12.63
2019-05-01T00:34:33.330Z,12.61
2019-05-01T00:35:09.369Z,12.60
2019-05-01T00:35:46.607Z,12.60
2019-05-01T00:36:23.061Z,12.58
2019-05-01T00:36:59.600Z,12.58
2019-05-01T00:37:35.656Z,12.58
2019-05-01T00:38:11.798Z,12.59
2019-05-01T00:38:47.824Z,12.58
2019-05-01T00:39:23.868Z,12.57
2019-05-01T00:40:00.047Z,12.57
2019-05-01T00:40:36.387Z,12.58
2019-05-01T00:41:12.842Z,12.57
2019-05-01T00:41:48.869Z,12.59
2019-05-01T00:42:24.900Z,12.59
2019-05-01T00:43:00.918Z,12.57
2019-05-01T00:43:37.154Z,12.58
2019-05-01T00:44:13.288Z,12.54
2019-05-01T00:44:49.636Z,12.58
2019-05-01T00:45:25.798Z,12.60
2019-05-01T00:46:01.827Z,12.57
2019-05-01T00:46:37.941Z,12.59
2019-05-01T00:47:13.978Z,12.58
2019-05-01T00:47:50.085Z,12.57
2019-05-01T00:48:26.111Z,12.57
2019-05-01T00:49:02.769Z,12.57
2019-05-01T00:49:38.865Z,12.57
2019-05-01T00:50:14.903Z,12.56
2019-05-01T00:50:51.016Z,12.55
2019-05-01T00:51:28.016Z,12.57
2019-05-01T00:52:04.041Z,12.58
2019-05-01T00:52:40.062Z,12.58
2019-05-01T00:53:16.108Z,12.58
2019-05-01T00:53:52.345Z,12.58
2019-05-01T00:54:29.044Z,12.55
2019-05-01T00:55:23.615Z,12.55
2019-05-01T00:56:04.030Z,12.55
2019-05-01T00:56:57.800Z,12.40
2019-05-01T00:57:35.489Z,12.37
2019-05-01T00:58:16.521Z,12.31
2019-05-01T00:58:57.148Z,12.34
2019-05-01T00:59:34.210Z,12.33
2019-05-01T01:00:27.759Z,12.09
2019-05-01T01:01:05.484Z,12.19
2019-05-01T01:01:48.937Z,12.20
2019-05-01T01:02:26.925Z,12.27
2019-05-01T01:03:03.134Z,12.24
2019-05-01T01:03:40.172Z,12.28
2019-05-01T01:04:17.650Z,12.25
2019-05-01T01:04:53.691Z,12.28
2019-05-01T01:05:29.720Z,12.27
2019-05-01T01:06:06.261Z,12.30
2019-05-01T01:06:42.512Z,12.32
2019-05-01T01:07:18.532Z,12.34
2019-05-01T01:07:54.559Z,12.36
2019-05-01T01:08:30.582Z,12.35
2019-05-01T01:09:07.661Z,12.33
2019-05-01T01:09:45.283Z,12.31
2019-05-01T01:10:21.344Z,12.32
2019-05-01T01:10:57.694Z,12.32
2019-05-01T01:11:34.097Z,12.34
2019-05-01T01:12:10.116Z,12.36
2019-05-01T01:12:46.168Z,12.35
2019-05-01T01:13:22.209Z,12.36
2019-05-01T01:13:58.234Z,12.34
2019-05-01T01:14:34.376Z,12.35
2019-05-01T01:15:10.739Z,12.35
2019-05-01T01:15:47.069Z,12.35
2019-05-01T01:16:23.099Z,12.33
2019-05-01T01:16:59.195Z,12.33
2019-05-01T01:17:35.393Z,12.33
2019-05-01T01:18:11.516Z,12.34
2019-05-01T01:18:47.615Z,12.32
2019-05-01T01:19:23.656Z,12.22
2019-05-01T01:19:59.819Z,12.24
2019-05-01T01:20:35.953Z,12.27
2019-05-01T01:21:12.152Z,12.25
2019-05-01T01:21:48.299Z,12.27
2019-05-01T01:22:24.507Z,12.26
2019-05-01T01:23:00.550Z,12.25
2019-05-01T01:23:36.690Z,12.26
2019-05-01T01:24:13.024Z,12.25
2019-05-01T01:24:49.051Z,12.21
2019-05-01T01:25:25.060Z,12.19
2019-05-01T01:26:01.076Z,12.21
2019-05-01T01:26:38.074Z,12.18
2019-05-01T01:27:14.094Z,12.19
2019-05-01T01:27:50.335Z,12.19
2019-05-01T01:28:26.689Z,12.18
2019-05-01T01:29:03.097Z,12.17
2019-05-01T01:29:39.200Z,12.19
2019-05-01T01:30:15.240Z,12.17
2019-05-01T01:30:56.399Z,12.16
2019-05-01T01:31:29.187Z,12.18
2019-05-01T01:32:05.604Z,12.17
2019-05-01T01:32:42.076Z,12.16
2019-05-01T01:33:18.457Z,12.16
2019-05-01T01:33:54.487Z,12.15
2019-05-01T01:34:30.548Z,12.16
2019-05-01T01:35:07.591Z,12.16
2019-05-01T01:35:43.682Z,12.17
2019-05-01T01:36:19.781Z,12.15
2019-05-01T01:36:56.133Z,12.16
2019-05-01T01:37:32.280Z,12.13
2019-05-01T01:38:08.403Z,12.12
2019-05-01T01:38:44.593Z,12.10
2019-05-01T01:39:20.614Z,12.07
2019-05-01T01:39:56.729Z,12.08
2019-05-01T01:40:32.810Z,12.06
2019-05-01T01:41:11.142Z,12.06
2019-05-01T01:41:47.542Z,12.06
2019-05-01T01:42:24.550Z,12.05
2019-05-01T01:43:18.199Z,12.07
2019-05-01T01:43:56.012Z,12.07
2019-05-01T01:44:40.741Z,11.98
2019-05-01T01:45:18.504Z,12.01
2019-05-01T01:45:59.379Z,11.98
2019-05-01T01:46:37.041Z,11.99
2019-05-01T01:47:13.060Z,11.97
2019-05-01T01:48:06.869Z,11.93
2019-05-01T01:48:43.861Z,11.94
2019-05-01T01:49:20.068Z,11.85
2019-05-01T01:49:56.420Z,11.87
2019-05-01T01:50:32.570Z,11.90
2019-05-01T01:51:08.600Z,11.90
2019-05-01T01:51:44.704Z,11.93
2019-05-01T01:52:20.732Z,11.94
2019-05-01T01:52:56.758Z,11.95
2019-05-01T01:53:32.894Z,11.96
2019-05-01T01:54:09.247Z,11.96
2019-05-01T01:54:45.671Z,11.97
2019-05-01T01:55:21.702Z,11.99
2019-05-01T01:55:57.733Z,12.01
2019-05-01T01:56:33.772Z,12.01
2019-05-01T01:57:09.869Z,12.02
2019-05-01T01:57:45.926Z,12.02
2019-05-01T01:58:22.279Z,12.03
2019-05-01T01:58:58.508Z,12.03
2019-05-01T01:59:34.555Z,12.03
2019-05-01T02:00:12.326Z,12.04
2019-05-01T02:00:52.872Z,12.04
2019-05-01T02:01:30.659Z,12.04
2019-05-01T02:02:14.289Z,12.01
2019-05-01T02:02:52.040Z,12.01
2019-05-01T02:03:32.849Z,11.96
2019-05-01T02:04:15.635Z,11.95
2019-05-01T02:05:04.832Z,11.69
2019-05-01T02:05:42.565Z,11.77
2019-05-01T02:06:18.608Z,11.77
2019-05-01T02:06:54.757Z,11.81
2019-05-01T02:07:30.963Z,11.85
2019-05-01T02:08:09.029Z,11.88
2019-05-01T02:08:55.900Z,11.89
2019-05-01T02:09:22.963Z,11.89
2019-05-01T02:09:58.987Z,11.90
2019-05-01T02:10:42.571Z,11.93
2019-05-01T02:11:12.809Z,11.96
2019-05-01T02:11:48.906Z,11.95
2019-05-01T02:12:24.911Z,11.97
2019-05-01T02:13:00.942Z,11.99
2019-05-01T02:13:38.045Z,12.02
2019-05-01T02:14:14.073Z,12.03
2019-05-01T02:14:50.103Z,12.05
2019-05-01T02:15:26.147Z,12.04
2019-05-01T02:16:02.170Z,12.05
2019-05-01T02:16:38.443Z,12.07
2019-05-01T02:17:14.479Z,12.07
2019-05-01T02:17:50.585Z,12.09
2019-05-01T02:18:26.620Z,12.10
2019-05-01T02:19:02.661Z,12.10
2019-05-01T02:19:38.760Z,12.10
2019-05-01T02:20:14.855Z,12.09
2019-05-01T02:20:50.867Z,12.08
2019-05-01T02:21:26.876Z,12.10
2019-05-01T02:22:04.564Z,12.09
2019-05-01T02:22:40.585Z,12.10
2019-05-01T02:23:16.629Z,12.11
2019-05-01T02:23:52.639Z,12.09
2019-05-01T02:24:28.694Z,12.12
2019-05-01T02:25:05.852Z,12.13
2019-05-01T02:25:42.450Z,12.15
2019-05-01T02:26:21.641Z,12.17
2019-05-01T02:27:05.213Z,12.16
2019-05-01T02:27:51.831Z,12.14
2019-05-01T02:28:38.028Z,12.11
2019-05-01T02:29:18.404Z,12.10
2019-05-01T02:29:56.069Z,12.09
2019-05-01T02:30:32.101Z,12.10
2019-05-01T02:31:27.082Z,12.13
2019-05-01T02:31:51.833Z,12.18
2019-05-01T02:32:29.035Z,12.19
2019-05-01T02:33:05.055Z,12.22
2019-05-01T02:33:42.068Z,12.25
2019-05-01T02:34:18.195Z,12.29
2019-05-01T02:34:54.220Z,12.28
2019-05-01T02:35:30.605Z,12.27
2019-05-01T02:36:06.658Z,12.28
2019-05-01T02:36:42.689Z,12.29
2019-05-01T02:37:18.719Z,12.32
2019-05-01T02:37:54.801Z,12.33
2019-05-01T02:38:30.836Z,12.36
2019-05-01T02:39:08.604Z,12.38
2019-05-01T02:39:44.714Z,12.37
2019-05-01T02:40:38.844Z,12.39
2019-05-01T02:41:14.965Z,12.39
2019-05-01T02:41:52.469Z,12.28
2019-05-01T02:42:29.454Z,12.29
2019-05-01T02:43:05.547Z,12.30
2019-05-01T02:43:42.217Z,12.31
2019-05-01T02:44:30.021Z,12.31
2019-05-01T02:45:06.065Z,12.30
2019-05-01T02:45:42.542Z,12.24
2019-05-01T02:46:18.573Z,12.30
2019-05-01T02:46:54.660Z,12.33
2019-05-01T02:47:32.135Z,12.32
2019-05-01T02:48:08.321Z,12.32
2019-05-01T02:49:04.126Z,12.30
2019-05-01T02:49:55.240Z,12.30
2019-05-01T02:50:30.677Z,12.23
2019-05-01T02:51:06.443Z,11.95
2019-05-01T02:51:42.523Z,12.08
2019-05-01T02:52:18.560Z,12.17
2019-05-01T02:52:54.576Z,12.23
2019-05-01T02:53:31.130Z,12.26
2019-05-01T02:54:07.261Z,12.29
2019-05-01T02:54:43.692Z,12.30
2019-05-01T02:55:24.072Z,12.32
2019-05-01T02:56:18.668Z,12.33
2019-05-01T02:56:58.863Z,12.21
2019-05-01T02:57:34.882Z,12.27
2019-05-01T02:58:10.909Z,12.28
2019-05-01T02:58:47.026Z,12.34
2019-05-01T02:59:23.910Z,12.37
2019-05-01T02:59:59.943Z,12.42
2019-05-01T03:00:36.079Z,12.41
2019-05-01T03:01:14.287Z,12.42
2019-05-01T03:01:50.044Z,12.45
2019-05-01T03:02:26.076Z,12.45
2019-05-01T03:03:02.104Z,12.49
2019-05-01T03:03:38.124Z,12.52
2019-05-01T03:04:14.239Z,12.56
2019-05-01T03:04:50.456Z,12.59
2019-05-01T03:05:26.510Z,12.63
2019-05-01T03:06:02.604Z,12.63
2019-05-01T03:06:38.737Z,12.70
2019-05-01T03:07:15.271Z,12.73
2019-05-01T03:07:51.289Z,12.77
2019-05-01T03:08:27.320Z,12.78
2019-05-01T03:09:06.902Z,12.84
2019-05-01T03:09:42.980Z,12.88
2019-05-01T03:10:19.030Z,12.92
2019-05-01T03:10:55.083Z,12.96
2019-05-01T03:11:31.133Z,12.95
2019-05-01T03:12:07.142Z,13.01
2019-05-01T03:12:43.577Z,13.02
2019-05-01T03:13:19.616Z,13.05
2019-05-01T03:13:55.671Z,13.07
2019-05-01T03:14:31.703Z,13.07
2019-05-01T03:15:07.810Z,13.10
2019-05-01T03:15:43.867Z,13.15
2019-05-01T03:16:19.921Z,13.16
2019-05-01T03:16:57.019Z,13.18
2019-05-01T03:17:35.624Z,13.20
2019-05-01T03:18:16.234Z,13.22
2019-05-01T03:18:59.983Z,13.26
2019-05-01T03:19:37.662Z,13.28
2019-05-01T03:20:22.491Z,13.28
2019-05-01T03:21:11.939Z,13.26
2019-05-01T03:21:58.433Z,13.27
2019-05-01T03:22:39.751Z,13.30
2019-05-01T03:23:29.247Z,13.33
2019-05-01T03:24:11.324Z,13.36
2019-05-01T03:24:47.370Z,13.34
2019-05-01T03:25:23.567Z,13.36
2019-05-01T03:25:59.587Z,13.42
2019-05-01T03:26:35.790Z,13.45
2019-05-01T03:27:11.890Z,13.48
2019-05-01T03:27:47.930Z,13.52
2019-05-01T03:28:23.975Z,13.56
2019-05-01T03:29:00.007Z,13.60
2019-05-01T03:29:36.028Z,13.66
2019-05-01T03:30:12.064Z,13.72
2019-05-01T03:30:48.469Z,13.73
2019-05-01T03:31:24.507Z,13.77
2019-05-01T03:32:16.541Z,13.81
2019-05-01T03:32:39.619Z,13.85
2019-05-01T03:33:15.639Z,13.88
2019-05-01T03:33:51.675Z,13.90
2019-05-01T03:34:28.047Z,13.94
2019-05-01T03:35:05.590Z,13.96
2019-05-01T03:35:41.603Z,13.98
2019-05-01T03:36:18.680Z,13.98
2019-05-01T03:36:54.799Z,14.01
2019-05-01T03:37:30.826Z,14.05
2019-05-01T03:38:06.846Z,14.08
2019-05-01T03:38:42.877Z,14.11
2019-05-01T03:39:18.884Z,14.12
2019-05-01T03:39:54.913Z,14.10
2019-05-01T03:40:30.938Z,14.12
2019-05-01T03:41:06.968Z,14.09
2019-05-01T03:41:43.017Z,14.08
2019-05-01T03:42:19.032Z,14.12
2019-05-01T03:42:55.082Z,14.14
2019-05-01T03:43:31.598Z,14.16
2019-05-01T03:44:07.628Z,14.20
2019-05-01T03:44:43.775Z,14.22
2019-05-01T03:45:19.809Z,14.25
2019-05-01T03:45:55.959Z,14.26
2019-05-01T03:46:31.987Z,14.28
2019-05-01T03:47:08.197Z,14.32
2019-05-01T03:47:44.243Z,14.35
2019-05-01T03:48:21.328Z,14.39
2019-05-01T03:48:58.344Z,14.39
2019-05-01T03:49:34.385Z,14.39
2019-05-01T03:50:11.392Z,14.42
2019-05-01T03:50:47.708Z,14.41
2019-05-01T03:51:23.723Z,14.42
2019-05-01T03:51:59.781Z,14.41
2019-05-01T03:52:36.816Z,14.42
2019-05-01T03:53:12.857Z,14.42
2019-05-01T03:53:48.913Z,14.46
2019-05-01T03:54:24.980Z,14.48
2019-05-01T03:55:01.124Z,14.50
2019-05-01T03:55:37.607Z,14.51
2019-05-01T03:56:13.788Z,14.51
2019-05-01T03:56:49.803Z,14.54
2019-05-01T03:57:25.889Z,14.55
2019-05-01T03:58:01.989Z,14.57
2019-05-01T03:58:38.045Z,14.59
2019-05-01T03:59:14.120Z,14.58
2019-05-01T03:59:50.256Z,14.61
2019-05-01T04:00:39.891Z,14.64
2019-05-01T04:01:17.558Z,14.67
2019-05-01T04:02:11.419Z,14.62
2019-05-01T04:02:50.672Z,14.65
2019-05-01T04:03:31.082Z,14.60
2019-05-01T04:04:08.737Z,14.64
2019-05-01T04:04:44.793Z,14.63
2019-05-01T04:05:20.809Z,14.68
2019-05-01T04:05:56.935Z,14.72
2019-05-01T04:06:32.982Z,14.78
2019-05-01T04:07:08.968Z,14.81
2019-05-01T04:07:45.103Z,14.84
2019-05-01T04:08:21.127Z,14.89
2019-05-01T04:08:57.200Z,14.94
2019-05-01T04:09:33.242Z,14.96
2019-05-01T04:10:09.252Z,14.99
2019-05-01T04:10:46.138Z,15.03
2019-05-01T04:11:22.387Z,15.08
2019-05-01T04:11:59.410Z,15.12
2019-05-01T04:12:35.435Z,15.15
2019-05-01T04:13:11.462Z,15.20
2019-05-01T04:13:47.477Z,15.25
2019-05-01T04:14:23.681Z,15.30
2019-05-01T04:14:59.720Z,15.34
2019-05-01T04:15:35.822Z,15.37
2019-05-01T04:16:11.923Z,15.42
2019-05-01T04:16:49.581Z,15.46
2019-05-01T04:17:27.446Z,15.50
2019-05-01T04:18:05.124Z,15.54
2019-05-01T04:18:42.100Z,15.58
2019-05-01T04:19:18.220Z,15.61
2019-05-01T04:19:54.327Z,15.66
2019-05-01T04:20:30.425Z,15.73
2019-05-01T04:21:07.982Z,15.81
2019-05-01T04:21:45.627Z,15.87
2019-05-01T04:22:21.758Z,15.89
2019-05-01T04:22:57.855Z,15.92
2019-05-01T04:23:33.882Z,15.94
2019-05-01T04:24:09.901Z,15.99
2019-05-01T04:24:45.939Z,15.99
2019-05-01T04:25:22.188Z,15.99
2019-05-01T04:25:58.212Z,15.99
2019-05-01T04:26:34.227Z,16.00
2019-05-01T04:27:11.958Z,15.97
2019-05-01T04:27:49.617Z,15.97
2019-05-01T04:28:27.296Z,15.97
2019-05-01T04:29:16.534Z,15.95
2019-05-01T04:29:54.202Z,15.97
2019-05-01T04:30:31.915Z,15.91
2019-05-01T04:31:09.568Z,15.93
2019-05-01T04:31:47.226Z,15.95
2019-05-01T04:32:24.941Z,15.99
2019-05-01T04:33:02.577Z,16.04
2019-05-01T04:33:40.252Z,16.06
2019-05-01T04:34:20.950Z,16.02
2019-05-01T04:34:58.064Z,16.09
2019-05-01T04:35:52.100Z,15.87
2019-05-01T04:36:41.597Z,15.96
2019-05-01T04:37:19.284Z,15.98
2019-05-01T04:37:55.416Z,15.98
2019-05-01T04:38:31.440Z,16.04
2019-05-01T04:39:08.114Z,16.09
2019-05-01T04:39:44.134Z,16.02
2019-05-01T04:40:20.438Z,16.08
2019-05-01T04:40:56.506Z,16.14
2019-05-01T04:41:32.525Z,16.16
2019-05-01T04:42:08.671Z,16.17
2019-05-01T04:42:44.716Z,16.21
2019-05-01T04:43:20.740Z,16.22
2019-05-01T04:43:56.868Z,16.19
2019-05-01T04:44:33.650Z,16.21
2019-05-01T04:45:09.779Z,16.28
2019-05-01T04:45:45.908Z,16.29
2019-05-01T04:46:21.979Z,16.31
2019-05-01T04:46:58.503Z,16.34
2019-05-01T04:47:34.516Z,16.42
2019-05-01T04:48:10.725Z,16.44
2019-05-01T04:48:46.773Z,16.45
2019-05-01T04:49:23.876Z,16.46
2019-05-01T04:50:00.456Z,16.50
2019-05-01T04:50:36.554Z,16.60
2019-05-01T04:51:12.573Z,16.68
2019-05-01T04:51:49.671Z,16.70
2019-05-01T04:52:26.646Z,16.75
2019-05-01T04:53:02.655Z,16.76
2019-05-01T04:53:40.045Z,16.83
2019-05-01T04:54:16.239Z,16.87
2019-05-01T04:54:52.326Z,16.87
2019-05-01T04:55:28.352Z,16.91
2019-05-01T04:56:04.503Z,16.94
2019-05-01T04:56:40.521Z,16.98
2019-05-01T04:57:17.567Z,16.95
2019-05-01T04:57:53.631Z,17.02
2019-05-01T04:58:29.898Z,16.98
2019-05-01T04:59:06.019Z,17.06
2019-05-01T04:59:42.054Z,17.09
2019-05-01T05:00:18.143Z,17.09
2019-05-01T05:00:54.266Z,17.10
2019-05-01T05:01:35.610Z,17.12
2019-05-01T05:02:13.286Z,17.12
2019-05-01T05:03:03.574Z,17.17
2019-05-01T05:03:28.724Z,17.25
2019-05-01T05:04:04.755Z,17.29
2019-05-01T05:04:40.790Z,17.36
2019-05-01T05:05:16.823Z,17.39
2019-05-01T05:05:52.836Z,17.44
2019-05-01T05:06:28.871Z,17.44
2019-05-01T05:07:04.907Z,17.47
2019-05-01T05:07:40.947Z,17.46
2019-05-01T05:08:17.071Z,17.51
2019-05-01T05:08:53.092Z,17.50
2019-05-01T05:09:39.805Z,17.54
2019-05-01T05:10:15.827Z,17.46
2019-05-01T05:10:53.218Z,17.44
2019-05-01T05:11:30.882Z,17.42
2019-05-01T05:12:09.193Z,17.40
2019-05-01T05:12:52.827Z,17.35
2019-05-01T05:13:33.513Z,17.39
2019-05-01T05:14:17.095Z,17.42
2019-05-01T05:15:06.842Z,17.45
2019-05-01T05:15:44.502Z,17.43
2019-05-01T05:16:22.153Z,17.40
2019-05-01T05:17:08.589Z,17.46
2019-05-01T05:17:44.634Z,17.49
2019-05-01T05:18:21.746Z,17.53
2019-05-01T05:18:57.844Z,17.55
2019-05-01T05:19:33.869Z,17.58
2019-05-01T05:20:09.941Z,17.58
2019-05-01T05:20:45.972Z,17.62
2019-05-01T05:21:22.006Z,17.61
2019-05-01T05:21:58.044Z,17.65
2019-05-01T05:22:34.063Z,17.69
2019-05-01T05:23:10.062Z,17.71
2019-05-01T05:23:46.079Z,17.78
2019-05-01T05:24:22.216Z,17.86
2019-05-01T05:24:58.236Z,17.94
2019-05-01T05:25:34.506Z,17.99
2019-05-01T05:26:10.539Z,18.06
2019-05-01T05:26:46.584Z,18.14
2019-05-01T05:27:23.783Z,18.14
2019-05-01T05:27:59.840Z,18.20
2019-05-01T05:28:36.076Z,18.20
2019-05-01T05:29:13.242Z,18.21
2019-05-01T05:29:49.499Z,18.27
2019-05-01T05:30:25.782Z,18.28
2019-05-01T05:31:02.103Z,18.32
2019-05-01T05:31:38.176Z,18.31
2019-05-01T05:32:14.227Z,18.35
2019-05-01T05:32:50.344Z,18.37
2019-05-01T05:33:27.127Z,18.41
2019-05-01T05:34:03.311Z,18.35
2019-05-01T05:34:39.324Z,18.38
2019-05-01T05:35:15.444Z,18.30
2019-05-01T05:35:51.479Z,18.29
2019-05-01T05:36:28.578Z,18.26
2019-05-01T05:37:06.716Z,18.24
2019-05-01T05:37:56.122Z,18.25
2019-05-01T05:38:39.622Z,18.21
2019-05-01T05:39:23.098Z,18.22
2019-05-01T05:40:00.398Z,18.19
2019-05-01T05:40:37.504Z,18.24
2019-05-01T05:41:13.807Z,18.22
2019-05-01T05:41:49.814Z,18.22
2019-05-01T05:42:25.956Z,18.16
2019-05-01T05:43:02.088Z,18.15
2019-05-01T05:43:38.146Z,18.18
2019-05-01T05:44:14.165Z,18.22
2019-05-01T05:44:50.200Z,18.19
2019-05-01T05:45:26.725Z,18.25
2019-05-01T05:46:03.091Z,18.28
2019-05-01T05:46:39.201Z,18.33
2019-05-01T05:47:15.228Z,18.39
2019-05-01T05:47:51.245Z,18.44
2019-05-01T05:48:27.278Z,18.52
2019-05-01T05:49:03.405Z,18.59
2019-05-01T05:49:39.434Z,18.68
2019-05-01T05:50:17.152Z,18.77
2019-05-01T05:50:57.686Z,18.79
2019-05-01T05:51:35.407Z,18.80
2019-05-01T05:52:16.186Z,18.78
2019-05-01T05:53:07.017Z,18.86
2019-05-01T05:53:44.695Z,18.98
2019-05-01T05:54:31.897Z,18.95
2019-05-01T05:55:12.615Z,18.98
2019-05-01T05:55:56.877Z,18.98
2019-05-01T05:56:41.144Z,19.02
2019-05-01T05:57:30.432Z,19.04
2019-05-01T05:58:08.254Z,19.07
2019-05-01T05:58:46.582Z,19.07
2019-05-01T05:59:25.234Z,19.10
2019-05-01T06:00:02.899Z,19.14
2019-05-01T06:00:40.638Z,19.21
2019-05-01T06:01:34.372Z,19.29
2019-05-01T06:02:12.277Z,19.34
2019-05-01T06:02:49.961Z,19.28
2019-05-01T06:03:46.659Z,19.28
2019-05-01T06:04:36.339Z,19.29
2019-05-01T06:05:16.935Z,19.32
2019-05-01T06:05:57.456Z,19.40
2019-05-01T06:06:35.159Z,19.48
2019-05-01T06:07:12.884Z,19.53
2019-05-01T06:08:06.277Z,19.52
2019-05-01T06:08:42.316Z,19.51
2019-05-01T06:09:18.347Z,19.37
2019-05-01T06:10:05.769Z,19.24
2019-05-01T06:10:46.541Z,19.18
2019-05-01T06:11:23.592Z,19.17
2019-05-01T06:12:04.833Z,19.07
2019-05-01T06:12:46.752Z,19.17
2019-05-01T06:13:23.093Z,19.26
2019-05-01T06:14:15.881Z,19.37
2019-05-01T06:14:53.564Z,19.51
2019-05-01T06:15:41.185Z,19.51
2019-05-01T06:16:17.396Z,19.73
2019-05-01T06:16:55.154Z,19.86
2019-05-01T06:17:32.812Z,19.93
2019-05-01T06:18:11.491Z,20.02
2019-05-01T06:18:49.159Z,20.02
2019-05-01T06:19:26.811Z,20.05
2019-05-01T06:20:14.111Z,20.01
2019-05-01T06:20:51.878Z,19.95
2019-05-01T06:21:36.390Z,19.98
2019-05-01T06:22:22.786Z,19.93
2019-05-01T06:23:09.285Z,19.86
2019-05-01T06:24:05.746Z,19.88
2019-05-01T06:24:40.547Z,19.87
2019-05-01T06:25:25.455Z,19.87
2019-05-01T06:26:04.258Z,19.79
2019-05-01T06:26:40.356Z,19.90
2019-05-01T06:27:16.442Z,20.00
2019-05-01T06:27:52.459Z,20.08
2019-05-01T06:28:29.628Z,20.27
2019-05-01T06:29:06.836Z,20.43
2019-05-01T06:29:42.859Z,20.59
2019-05-01T06:30:18.874Z,20.73
2019-05-01T06:30:56.542Z,20.69
2019-05-01T06:31:32.704Z,20.75
2019-05-01T06:32:08.803Z,20.86
2019-05-01T06:32:44.822Z,20.89
2019-05-01T06:33:20.871Z,20.93
2019-05-01T06:33:56.943Z,20.99
2019-05-01T06:34:32.989Z,21.09
2019-05-01T06:35:09.022Z,21.18
2019-05-01T06:35:46.017Z,21.22
2019-05-01T06:36:23.864Z,21.24
2019-05-01T06:36:59.755Z,21.27
2019-05-01T06:38:00.762Z,21.31
2019-05-01T06:38:36.240Z,21.34
2019-05-01T06:39:13.386Z,21.25
2019-05-01T06:39:49.849Z,21.18
2019-05-01T06:40:27.551Z,21.19
2019-05-01T06:41:03.650Z,21.23
2019-05-01T06:41:42.779Z,21.20
2019-05-01T06:42:19.288Z,21.20
2019-05-01T06:42:55.513Z,21.16
2019-05-01T06:43:33.295Z,21.07
2019-05-01T06:44:17.818Z,21.07
2019-05-01T06:44:55.507Z,20.94
2019-05-01T06:45:32.919Z,20.85
2019-05-01T06:46:13.180Z,20.71
2019-05-01T06:46:50.849Z,20.54
2019-05-01T06:47:28.524Z,20.50
2019-05-01T06:48:06.174Z,20.38
2019-05-01T06:48:48.801Z,20.36
2019-05-01T06:49:28.929Z,20.36
2019-05-01T06:50:07.520Z,20.31
2019-05-01T06:50:54.362Z,20.32
2019-05-01T06:51:35.200Z,20.30
2019-05-01T06:52:12.239Z,20.21
2019-05-01T06:52:48.174Z,20.13
2019-05-01T06:53:24.225Z,20.19
2019-05-01T06:54:00.375Z,20.27
2019-05-01T06:54:36.454Z,20.35
2019-05-01T06:55:12.493Z,20.39
2019-05-01T06:55:51.461Z,20.39
2019-05-01T06:56:26.411Z,20.49
2019-05-01T06:57:02.626Z,20.48
2019-05-01T06:57:43.963Z,20.63
2019-05-01T06:58:20.470Z,20.70
2019-05-01T06:58:55.216Z,20.74
2019-05-01T06:59:33.426Z,20.77
2019-05-01T07:00:11.275Z,20.71
2019-05-01T07:00:47.372Z,20.75
2019-05-01T07:01:24.073Z,20.77
2019-05-01T07:02:18.651Z,20.72
2019-05-01T07:02:54.786Z,20.50
2019-05-01T07:03:30.823Z,20.58
2019-05-01T07:04:14.087Z,20.58
2019-05-01T07:04:51.515Z,20.61
2019-05-01T07:05:27.715Z,20.62
2019-05-01T07:06:13.784Z,20.66
2019-05-01T07:06:41.689Z,20.78
2019-05-01T07:07:25.322Z,20.79
2019-05-01T07:07:55.873Z,20.89
2019-05-01T07:08:34.226Z,20.95
2019-05-01T07:09:12.156Z,21.02
2019-05-01T07:09:49.395Z,21.05
2019-05-01T07:10:31.582Z,21.09
2019-05-01T07:11:04.569Z,21.16
2019-05-01T07:11:42.287Z,21.20
2019-05-01T07:12:23.806Z,21.28
2019-05-01T07:12:59.920Z,21.38
2019-05-01T07:13:40.043Z,21.25
2019-05-01T07:14:16.589Z,21.37
2019-05-01T07:14:53.171Z,21.47
2019-05-01T07:15:29.326Z,21.42
2019-05-01T07:16:05.444Z,21.53
2019-05-01T07:16:42.653Z,21.49
2019-05-01T07:17:18.780Z,21.64
2019-05-01T07:17:54.893Z,21.77
2019-05-01T07:18:31.020Z,21.84
2019-05-01T07:19:07.772Z,21.91
2019-05-01T07:19:57.452Z,22.01
2019-05-01T07:20:35.418Z,22.13
2019-05-01T07:21:11.439Z,22.09
2019-05-01T07:21:47.470Z,22.12
2019-05-01T07:22:23.485Z,22.23
2019-05-01T07:22:59.615Z,22.24
2019-05-01T07:23:35.655Z,22.30
2019-05-01T07:24:11.779Z,22.23
2019-05-01T07:24:49.141Z,22.32
2019-05-01T07:25:25.387Z,22.37
2019-05-01T07:26:01.552Z,22.51
2019-05-01T07:26:37.579Z,22.33
2019-05-01T07:27:13.617Z,22.49
2019-05-01T07:27:53.937Z,22.55
2019-05-01T07:28:34.255Z,22.63
2019-05-01T07:29:24.255Z,22.51
2019-05-01T07:30:04.857Z,22.52
2019-05-01T07:30:50.084Z,22.44
2019-05-01T07:31:25.915Z,22.53
2019-05-01T07:32:06.431Z,22.61
2019-05-01T07:32:41.166Z,22.65
2019-05-01T07:33:17.966Z,22.70
2019-05-01T07:33:54.038Z,22.71
2019-05-01T07:34:31.409Z,22.72
2019-05-01T07:35:07.450Z,22.73
2019-05-01T07:35:43.750Z,22.73
2019-05-01T07:36:19.778Z,22.76
2019-05-01T07:36:55.841Z,22.83
2019-05-01T07:37:31.885Z,22.86
2019-05-01T07:38:10.808Z,22.93
2019-05-01T07:38:46.847Z,23.07
2019-05-01T07:39:23.837Z,23.18
2019-05-01T07:39:59.837Z,23.28
2019-05-01T07:40:36.055Z,23.42
2019-05-01T07:41:12.480Z,23.59
2019-05-01T07:41:49.321Z,23.67
2019-05-01T07:42:27.159Z,23.78
2019-05-01T07:43:04.838Z,23.65
2019-05-01T07:43:59.606Z,23.54
2019-05-01T07:44:38.277Z,23.53
2019-05-01T07:45:31.941Z,23.20
2019-05-01T07:46:27.580Z,23.30
2019-05-01T07:47:20.208Z,23.42
2019-05-01T07:48:01.114Z,23.48
2019-05-01T07:48:41.554Z,23.57
2019-05-01T07:49:17.725Z,23.58
2019-05-01T07:49:54.944Z,23.57
2019-05-01T07:50:32.609Z,23.57
2019-05-01T07:51:09.833Z,23.60
2019-05-01T07:51:53.079Z,23.57
2019-05-01T07:52:29.111Z,23.54
2019-05-01T07:53:05.201Z,23.50
2019-05-01T07:53:41.225Z,23.45
2019-05-01T07:54:17.330Z,23.41
2019-05-01T07:54:54.386Z,23.41
2019-05-01T07:55:36.104Z,23.47
2019-05-01T07:56:12.215Z,23.49
2019-05-01T07:56:48.235Z,23.41
2019-05-01T07:57:24.274Z,23.58
2019-05-01T07:58:00.305Z,23.70
2019-05-01T07:58:36.542Z,23.79
2019-05-01T07:59:12.582Z,23.85
2019-05-01T07:59:48.618Z,23.81
2019-05-01T08:00:29.542Z,23.79
2019-05-01T08:01:13.221Z,23.81
2019-05-01T08:01:49.907Z,23.65
2019-05-01T08:02:30.981Z,23.65
2019-05-01T08:03:07.193Z,23.37
2019-05-01T08:03:42.700Z,23.50
2019-05-01T08:04:35.281Z,23.50
2019-05-01T08:04:57.241Z,23.55
2019-05-01T08:05:33.285Z,23.48
2019-05-01T08:06:09.330Z,23.47
2019-05-01T08:06:45.353Z,23.40
2019-05-01T08:07:21.397Z,23.29
2019-05-01T08:07:57.417Z,23.28
2019-05-01T08:08:33.462Z,23.27